Westvale, New York
Current Conditions -  °F | °C
As of 6:54 PM on Saturday 20 Dec 2014 (Local Time) from KSYR Reporting Station
Few Clouds Few Clouds  
Wind Chill: 23°   Ceiling: Unl
Heat Index: 23°   Visibility: 10mi
Dew Point: 21°   Wind: 3mph
Humidity: 92%   Direction: 40°NE
Pressure: 30.3"   Gusts: NA
Location:  43.0396°N, 76.2224°W
Report Text: KSYR 202354Z 04003KT 10SM FEW026 FEW250 M05/M06 A3030 RMK AO2 SLP262 T10501061 11022 21050 51013
Loading
Personal Weather Stations






























Interactive Weather Map New forecast layout! Learn more

10-Day Weather Forecast

Advertisements
Track Severe Weather on mobile